createdAt,value
2018-04-16T00:00:19.828Z,24.57
2018-04-16T00:02:52.462Z,21.90
2018-04-16T00:05:25.847Z,23.30
2018-04-16T00:07:58.316Z,23.97
2018-04-16T00:10:30.947Z,19.97
2018-04-16T00:13:04.442Z,19.00
2018-04-16T00:15:37.042Z,21.70
2018-04-16T00:18:10.718Z,20.17
2018-04-16T00:20:43.508Z,20.37
2018-04-16T00:23:15.892Z,21.60
2018-04-16T00:25:49.171Z,25.23
2018-04-16T00:28:21.891Z,22.63
2018-04-16T00:30:54.434Z,21.53
2018-04-16T00:33:32.880Z,23.77
2018-04-16T00:36:23.682Z,22.70
2018-04-16T00:39:02.081Z,20.17
2018-04-16T00:41:52.305Z,22.57
2018-04-16T00:44:30.833Z,22.97
2018-04-16T00:47:09.234Z,22.37
2018-04-16T00:49:48.458Z,20.80
2018-04-16T00:52:26.885Z,20.53
2018-04-16T00:55:06.081Z,19.27
2018-04-16T00:57:44.577Z,19.93
2018-04-16T01:00:23.014Z,20.80
2018-04-16T01:03:01.818Z,23.20
2018-04-16T01:05:51.738Z,23.27
2018-04-16T01:08:30.740Z,22.27
2018-04-16T01:11:09.861Z,20.67
2018-04-16T01:13:49.815Z,26.07
2018-04-16T01:16:28.259Z,23.57
2018-04-16T01:19:06.724Z,22.10
2018-04-16T01:21:45.620Z,25.90
2018-04-16T01:24:35.955Z,23.80
2018-04-16T01:27:14.255Z,23.77
2018-04-16T01:29:53.631Z,21.80
2018-04-16T01:32:43.792Z,25.13
2018-04-16T01:35:23.186Z,26.77
2018-04-16T01:38:01.536Z,25.13
2018-04-16T01:40:48.772Z,28.33
2018-04-16T01:43:27.239Z,26.63
2018-04-16T01:46:05.723Z,26.07
2018-04-16T01:48:44.306Z,25.67
2018-04-16T01:51:22.651Z,25.07
2018-04-16T01:54:01.975Z,23.97
2018-04-16T01:56:40.510Z,24.90
2018-04-16T01:59:19.177Z,25.90
2018-04-16T02:01:57.641Z,24.00
2018-04-16T02:04:36.015Z,26.20
2018-04-16T02:07:14.516Z,23.47
2018-04-16T02:09:53.006Z,22.80
2018-04-16T02:12:31.496Z,27.10
2018-04-16T02:15:10.493Z,23.43
2018-04-16T02:17:49.787Z,24.77
2018-04-16T02:20:29.094Z,23.90
2018-04-16T02:23:07.486Z,23.57
2018-04-16T02:25:45.919Z,25.07
2018-04-16T02:28:24.313Z,23.67
2018-04-16T02:31:02.765Z,24.73
2018-04-16T02:33:41.294Z,23.60
2018-04-16T02:36:19.962Z,23.87
2018-04-16T02:38:58.386Z,21.33
2018-04-16T02:41:36.862Z,23.03
2018-04-16T02:44:15.244Z,23.13
2018-04-16T02:46:54.001Z,22.77
2018-04-16T02:49:32.484Z,22.97
2018-04-16T02:52:11.036Z,23.33
2018-04-16T02:54:49.409Z,24.17
2018-04-16T02:57:27.807Z,23.30
2018-04-16T03:00:06.907Z,25.00
2018-04-16T03:02:45.464Z,27.60
2018-04-16T03:05:23.969Z,25.87
2018-04-16T03:08:03.141Z,27.30
2018-04-16T03:10:41.620Z,24.17
2018-04-16T03:13:20.086Z,31.67
2018-04-16T03:15:58.485Z,28.70
2018-04-16T03:18:37.061Z,28.07
2018-04-16T03:21:15.545Z,24.33
2018-04-16T03:23:53.966Z,27.87
2018-04-16T03:26:41.409Z,27.27
2018-04-16T03:29:19.798Z,24.10
2018-04-16T03:31:58.523Z,22.90
2018-04-16T03:34:36.904Z,25.20
2018-04-16T03:37:29.835Z,24.43
2018-04-16T03:40:08.349Z,26.27
2018-04-16T03:42:46.924Z,24.30
2018-04-16T03:45:25.340Z,25.60
2018-04-16T03:48:04.324Z,25.47
2018-04-16T03:50:42.722Z,24.53
2018-04-16T03:53:17.923Z,23.07
2018-04-16T03:56:07.096Z,23.90
2018-04-16T03:58:39.598Z,24.70
2018-04-16T04:01:12.061Z,24.80
2018-04-16T04:03:44.721Z,27.27
2018-04-16T04:06:17.121Z,24.67
2018-04-16T04:08:49.542Z,23.57
2018-04-16T04:11:22.163Z,24.63
2018-04-16T04:13:54.663Z,28.23
2018-04-16T04:16:27.306Z,26.30
2018-04-16T04:18:59.792Z,27.33
2018-04-16T04:21:32.466Z,26.73
2018-04-16T04:24:17.307Z,25.47
2018-04-16T04:27:02.909Z,29.83
2018-04-16T04:29:47.831Z,26.80
2018-04-16T04:32:21.090Z,26.63
2018-04-16T04:34:53.467Z,25.67
2018-04-16T04:37:25.825Z,27.73
2018-04-16T04:39:59.834Z,29.37
2018-04-16T04:42:32.284Z,27.73
2018-04-16T04:45:04.703Z,27.63
2018-04-16T04:47:37.282Z,28.77
2018-04-16T04:50:09.632Z,29.67
2018-04-16T04:52:42.847Z,26.87
2018-04-16T04:55:16.046Z,28.20
2018-04-16T04:57:48.624Z,29.00
2018-04-16T05:00:21.172Z,26.83
2018-04-16T05:02:54.268Z,25.57
2018-04-16T05:05:26.853Z,28.33
2018-04-16T05:08:00.098Z,28.03
2018-04-16T05:10:32.621Z,25.87
2018-04-16T05:13:05.779Z,26.90
2018-04-16T05:15:38.422Z,28.07
2018-04-16T05:18:11.689Z,27.77
2018-04-16T05:20:44.108Z,28.07
2018-04-16T05:23:16.822Z,27.33
2018-04-16T05:25:49.349Z,30.77
2018-04-16T05:28:22.617Z,29.97
2018-04-16T05:30:55.107Z,28.70
2018-04-16T05:33:27.532Z,29.90
2018-04-16T05:36:00.063Z,29.53
2018-04-16T05:38:33.312Z,30.57
2018-04-16T05:41:06.711Z,26.70
2018-04-16T05:43:39.960Z,32.13
2018-04-16T05:46:12.577Z,29.60
2018-04-16T05:48:44.986Z,27.57
2018-04-16T05:51:17.644Z,27.17
2018-04-16T05:53:50.346Z,29.27
2018-04-16T05:56:22.842Z,29.70
2018-04-16T05:58:55.552Z,30.77
2018-04-16T06:01:28.893Z,30.93
2018-04-16T06:04:01.410Z,26.03
2018-04-16T06:06:34.289Z,26.67
2018-04-16T06:09:06.597Z,28.00
2018-04-16T06:11:39.368Z,33.93
2018-04-16T06:14:13.142Z,24.40
2018-04-16T06:16:46.504Z,26.17
2018-04-16T06:19:19.002Z,28.00
2018-04-16T06:21:51.561Z,25.83
2018-04-16T06:24:24.299Z,29.50
2018-04-16T06:26:56.977Z,30.07
2018-04-16T06:29:29.484Z,23.47
2018-04-16T06:32:01.963Z,24.10
2018-04-16T06:34:35.367Z,22.60
2018-04-16T06:37:07.977Z,19.40
2018-04-16T06:39:40.402Z,18.27
2018-04-16T06:42:12.987Z,17.07
2018-04-16T06:44:46.155Z,12.60
2018-04-16T06:47:18.678Z,14.47
2018-04-16T06:49:51.247Z,12.00
2018-04-16T06:52:23.844Z,13.50
2018-04-16T06:54:56.162Z,11.20
2018-04-16T06:57:28.787Z,10.57
2018-04-16T07:00:01.225Z,10.27
2018-04-16T07:02:33.670Z,9.20
2018-04-16T07:05:06.144Z,7.90
2018-04-16T07:07:38.815Z,8.00
2018-04-16T07:10:11.393Z,9.63
2018-04-16T07:12:43.929Z,7.57
2018-04-16T07:15:16.489Z,8.47
2018-04-16T07:17:49.044Z,8.27
2018-04-16T07:20:21.560Z,8.67
2018-04-16T07:22:54.229Z,9.10
2018-04-16T07:25:26.725Z,9.50
2018-04-16T07:27:59.230Z,10.83
2018-04-16T07:30:31.855Z,8.80
2018-04-16T07:33:04.297Z,9.17
2018-04-16T07:35:36.933Z,10.20
2018-04-16T07:38:09.470Z,9.53
2018-04-16T07:40:42.145Z,10.23
2018-04-16T07:43:14.795Z,13.47
2018-04-16T07:45:47.486Z,11.00
2018-04-16T07:48:20.076Z,12.27
2018-04-16T07:50:52.724Z,11.80
2018-04-16T07:53:26.035Z,13.50
2018-04-16T07:55:58.437Z,12.20
2018-04-16T07:58:31.397Z,11.27
2018-04-16T08:01:04.090Z,14.30
2018-04-16T08:03:36.542Z,11.33
2018-04-16T08:06:08.965Z,11.77
2018-04-16T08:08:42.071Z,10.77
2018-04-16T08:11:14.524Z,12.10
2018-04-16T08:13:47.270Z,11.50
2018-04-16T08:16:20.571Z,13.17
2018-04-16T08:18:53.926Z,11.03
2018-04-16T08:21:27.727Z,12.23
2018-04-16T08:24:00.228Z,11.80
2018-04-16T08:26:33.714Z,11.83
2018-04-16T08:29:06.386Z,12.27
2018-04-16T08:31:38.921Z,11.70
2018-04-16T08:34:11.357Z,12.97
2018-04-16T08:36:43.928Z,11.53
2018-04-16T08:39:16.390Z,11.80
2018-04-16T08:41:48.826Z,12.57
2018-04-16T08:44:21.191Z,10.63
2018-04-16T08:46:53.722Z,9.57
2018-04-16T08:49:26.251Z,11.53
2018-04-16T08:51:59.444Z,12.60
2018-04-16T08:54:32.012Z,11.23
2018-04-16T08:57:04.475Z,12.67
2018-04-16T08:59:36.955Z,10.57
2018-04-16T09:02:09.462Z,11.97
2018-04-16T09:04:42.716Z,9.73
2018-04-16T09:07:15.913Z,10.27
2018-04-16T09:09:48.504Z,9.87
2018-04-16T09:12:20.913Z,9.87
2018-04-16T09:14:53.462Z,9.93
2018-04-16T09:17:26.699Z,10.07
2018-04-16T09:19:59.790Z,9.53
2018-04-16T09:22:33.676Z,9.73
2018-04-16T09:25:06.466Z,8.80
2018-04-16T09:27:39.021Z,8.27
2018-04-16T09:30:11.432Z,7.83
2018-04-16T09:32:43.983Z,7.70
2018-04-16T09:35:16.394Z,7.50
2018-04-16T09:37:51.392Z,8.10
2018-04-16T09:40:23.803Z,7.23
2018-04-16T09:42:56.888Z,7.43
2018-04-16T09:45:29.563Z,6.97
2018-04-16T09:48:01.993Z,7.70
2018-04-16T09:50:34.365Z,6.80
2018-04-16T09:53:06.729Z,7.87
2018-04-16T09:55:40.048Z,9.47
2018-04-16T09:58:13.320Z,7.93
2018-04-16T10:00:49.709Z,7.87
2018-04-16T10:03:22.262Z,10.67
2018-04-16T10:05:55.064Z,10.17
2018-04-16T10:08:27.582Z,9.53
2018-04-16T10:11:00.074Z,10.43
2018-04-16T10:13:32.536Z,12.00
2018-04-16T10:16:12.413Z,10.43
2018-04-16T10:18:44.997Z,10.43
2018-04-16T10:21:18.362Z,10.88
2018-04-16T10:23:50.740Z,8.37
2018-04-16T10:26:23.225Z,7.55
2018-04-16T10:28:55.675Z,9.60
2018-04-16T10:31:29.073Z,9.68
2018-04-16T10:34:01.818Z,8.43
2018-04-16T10:36:34.878Z,10.13
2018-04-16T10:39:07.958Z,8.50
2018-04-16T10:41:40.328Z,9.43
2018-04-16T10:44:14.177Z,13.27
2018-04-16T10:46:46.818Z,9.23
2018-04-16T10:49:19.449Z,8.87
2018-04-16T10:51:51.982Z,10.50
2018-04-16T10:54:24.761Z,8.83
2018-04-16T10:56:57.307Z,10.93
2018-04-16T10:59:29.964Z,11.57
2018-04-16T11:02:02.529Z,11.10
2018-04-16T11:04:34.989Z,10.27
2018-04-16T11:07:07.718Z,11.77
2018-04-16T11:09:40.167Z,11.30
2018-04-16T11:12:12.662Z,10.30
2018-04-16T11:14:46.031Z,11.97
2018-04-16T11:17:18.479Z,12.93
2018-04-16T11:19:50.833Z,11.83
2018-04-16T11:22:23.385Z,12.60
2018-04-16T11:24:56.522Z,12.40
2018-04-16T11:27:29.797Z,12.23
2018-04-16T11:30:03.026Z,10.60
2018-04-16T11:32:37.086Z,9.63
2018-04-16T11:35:09.539Z,10.38
2018-04-16T11:37:41.973Z,8.32
2018-04-16T11:40:14.403Z,8.70
2018-04-16T11:42:47.542Z,5.87
2018-04-16T11:45:20.740Z,6.80
2018-04-16T11:47:53.184Z,9.15
2018-04-16T11:50:25.795Z,10.27
2018-04-16T11:52:58.267Z,10.13
2018-04-16T11:55:31.449Z,12.60
2018-04-16T11:58:03.859Z,11.68
2018-04-16T12:00:37.437Z,17.67
2018-04-16T12:03:09.827Z,11.43
2018-04-16T12:05:42.503Z,10.23
2018-04-16T12:08:15.262Z,12.02
2018-04-16T12:10:47.763Z,13.02
2018-04-16T12:13:21.111Z,10.20
2018-04-16T12:15:53.528Z,12.00
2018-04-16T12:18:26.100Z,13.43
2018-04-16T12:20:58.678Z,12.07
2018-04-16T12:23:31.150Z,11.43
2018-04-16T12:26:03.799Z,11.68
2018-04-16T12:28:36.236Z,9.50
2018-04-16T12:31:08.698Z,9.88
2018-04-16T12:33:41.225Z,8.13
2018-04-16T12:36:13.716Z,8.65
2018-04-16T12:38:46.333Z,10.60
2018-04-16T12:41:19.421Z,9.65
2018-04-16T12:43:51.958Z,9.07
2018-04-16T12:46:24.324Z,9.32
2018-04-16T12:48:56.859Z,9.15
2018-04-16T12:51:29.357Z,8.18
2018-04-16T12:54:01.940Z,10.38
2018-04-16T12:56:34.540Z,6.87
2018-04-16T12:59:07.005Z,8.60
2018-04-16T13:01:39.539Z,7.62
2018-04-16T13:04:12.254Z,8.75
2018-04-16T13:06:45.026Z,11.48
2018-04-16T13:09:17.499Z,9.93
2018-04-16T13:11:49.990Z,9.48
2018-04-16T13:14:22.671Z,9.57
2018-04-16T13:16:55.778Z,8.20
2018-04-16T13:19:29.124Z,8.00
2018-04-16T13:22:01.735Z,9.23
2018-04-16T13:24:34.858Z,9.40
2018-04-16T13:27:07.520Z,6.85
2018-04-16T13:29:40.140Z,5.30
2018-04-16T13:32:12.615Z,7.20
2018-04-16T13:34:45.348Z,7.25
2018-04-16T13:37:17.924Z,6.12
2018-04-16T13:39:50.485Z,9.93
2018-04-16T13:42:23.120Z,7.45
2018-04-16T13:44:56.824Z,8.10
2018-04-16T13:47:29.359Z,5.47
2018-04-16T13:50:01.699Z,7.25
2018-04-16T13:52:34.145Z,5.57
2018-04-16T13:55:06.659Z,5.80
2018-04-16T13:57:39.912Z,6.70
2018-04-16T14:00:12.241Z,6.47
2018-04-16T14:02:44.988Z,5.03
2018-04-16T14:05:17.489Z,6.20
2018-04-16T14:07:51.171Z,6.72
2018-04-16T14:10:23.672Z,6.15
2018-04-16T14:12:56.120Z,7.50
2018-04-16T14:15:28.915Z,6.22
2018-04-16T14:18:01.580Z,7.45
2018-04-16T14:20:34.324Z,6.72
2018-04-16T14:23:07.019Z,6.55
2018-04-16T14:25:39.550Z,6.70
2018-04-16T14:28:12.359Z,6.35
2018-04-16T14:30:44.861Z,5.70
2018-04-16T14:33:17.426Z,7.50
2018-04-16T14:35:50.056Z,7.72
2018-04-16T14:38:22.853Z,7.12
2018-04-16T14:40:55.392Z,10.35
2018-04-16T14:43:28.613Z,8.07
2018-04-16T14:46:01.933Z,7.93
2018-04-16T14:48:34.495Z,7.95
2018-04-16T14:51:07.235Z,8.40
2018-04-16T14:53:39.800Z,8.63
2018-04-16T14:56:12.402Z,8.70
2018-04-16T14:58:45.867Z,8.65
2018-04-16T15:01:18.316Z,8.43
2018-04-16T15:03:50.899Z,9.05
2018-04-16T15:06:23.394Z,8.63
2018-04-16T15:08:56.355Z,8.65
2018-04-16T15:11:28.889Z,9.02
2018-04-16T15:14:02.193Z,11.02
2018-04-16T15:16:35.630Z,9.75
2018-04-16T15:19:08.371Z,10.63
2018-04-16T15:21:41.524Z,10.52
2018-04-16T15:24:14.160Z,12.85
2018-04-16T15:26:46.610Z,12.15
2018-04-16T15:29:19.829Z,10.05
2018-04-16T15:31:52.266Z,11.45
2018-04-16T15:34:24.853Z,9.73
2018-04-16T15:36:57.560Z,11.35
2018-04-16T15:39:30.313Z,11.23
2018-04-16T15:42:02.682Z,11.57
2018-04-16T15:44:35.474Z,9.73
2018-04-16T15:47:08.059Z,11.57
2018-04-16T15:49:41.449Z,11.85
2018-04-16T15:52:14.030Z,10.82
2018-04-16T15:54:47.577Z,12.52
2018-04-16T15:57:20.087Z,9.27
2018-04-16T15:59:52.959Z,11.38
2018-04-16T16:02:25.463Z,12.37
2018-04-16T16:04:58.272Z,9.80
2018-04-16T16:07:30.750Z,11.25
2018-04-16T16:10:03.733Z,10.93
2018-04-16T16:12:36.393Z,13.43
2018-04-16T16:15:09.071Z,10.65
2018-04-16T16:17:41.702Z,10.50
2018-04-16T16:20:14.243Z,10.23
2018-04-16T16:22:46.856Z,13.88
2018-04-16T16:25:19.436Z,10.05
2018-04-16T16:27:52.027Z,8.90
2018-04-16T16:30:24.595Z,11.55
2018-04-16T16:32:57.000Z,10.07
2018-04-16T16:35:29.798Z,12.95
2018-04-16T16:38:02.454Z,14.55
2018-04-16T16:40:36.052Z,8.90
2018-04-16T16:43:08.532Z,12.10
2018-04-16T16:45:41.340Z,10.85
2018-04-16T16:48:13.803Z,11.88
2018-04-16T16:50:46.127Z,11.60
2018-04-16T16:53:18.770Z,12.35
2018-04-16T16:55:51.268Z,14.13
2018-04-16T16:58:23.744Z,10.65
2018-04-16T17:00:56.588Z,11.95
2018-04-16T17:03:29.170Z,13.30
2018-04-16T17:06:01.652Z,11.18
2018-04-16T17:08:34.795Z,11.43
2018-04-16T17:11:07.275Z,10.93
2018-04-16T17:13:40.009Z,13.40
2018-04-16T17:16:12.533Z,10.93
2018-04-16T17:18:45.018Z,10.80
2018-04-16T17:21:11.424Z,11.32
2018-04-16T17:23:37.828Z,11.40
2018-04-16T17:26:04.417Z,12.88
2018-04-16T17:28:30.753Z,9.77
2018-04-16T17:30:57.064Z,10.40
2018-04-16T17:33:23.405Z,10.50
2018-04-16T17:35:49.751Z,13.20
2018-04-16T17:38:16.159Z,11.77
2018-04-16T17:40:42.809Z,11.80
2018-04-16T17:43:09.155Z,12.93
2018-04-16T17:45:35.500Z,12.13
2018-04-16T17:48:02.097Z,11.60
2018-04-16T17:50:28.439Z,12.33
2018-04-16T17:52:54.714Z,10.50
2018-04-16T17:55:21.059Z,15.10
2018-04-16T17:57:47.393Z,10.03
2018-04-16T18:00:14.666Z,13.50
2018-04-16T18:02:41.746Z,11.73
2018-04-16T18:05:08.083Z,15.07
2018-04-16T18:07:34.414Z,11.47
2018-04-16T18:10:00.740Z,9.70
2018-04-16T18:12:27.333Z,11.50
2018-04-16T18:14:53.690Z,13.30
2018-04-16T18:17:20.128Z,12.77
2018-04-16T18:19:46.561Z,14.30
2018-04-16T18:22:13.106Z,16.83
2018-04-16T18:24:39.490Z,14.80
2018-04-16T18:27:06.574Z,10.33
2018-04-16T18:29:32.882Z,12.50
2018-04-16T18:31:59.308Z,14.37
2018-04-16T18:34:26.386Z,12.63
2018-04-16T18:36:53.436Z,12.40
2018-04-16T18:39:19.832Z,11.67
2018-04-16T18:41:46.940Z,10.93
2018-04-16T18:44:13.434Z,10.43
2018-04-16T18:46:40.013Z,16.00
2018-04-16T18:49:06.432Z,11.57
2018-04-16T18:51:32.767Z,12.40
2018-04-16T18:53:59.175Z,9.93
2018-04-16T18:56:25.756Z,11.93
2018-04-16T18:58:52.183Z,14.60
2018-04-16T19:01:19.467Z,12.90
2018-04-16T19:03:46.051Z,11.80
2018-04-16T19:06:12.388Z,11.40
2018-04-16T19:08:38.883Z,12.10
2018-04-16T19:11:05.256Z,9.00
2018-04-16T19:13:31.771Z,13.63
2018-04-16T19:15:58.315Z,12.67
2018-04-16T19:18:30.961Z,11.63
2018-04-16T19:21:09.646Z,10.47
2018-04-16T19:23:42.857Z,11.57
2018-04-16T19:26:15.454Z,12.30
2018-04-16T19:28:48.538Z,12.80
2018-04-16T19:31:22.065Z,12.07
2018-04-16T19:34:00.591Z,13.87
2018-04-16T19:36:33.177Z,12.00
2018-04-16T19:39:06.688Z,15.13
2018-04-16T19:41:46.005Z,10.13
2018-04-16T19:44:20.106Z,10.87
2018-04-16T19:46:52.631Z,11.70
2018-04-16T19:49:32.072Z,9.77
2018-04-16T19:52:04.674Z,13.67
2018-04-16T19:54:37.380Z,14.00
2018-04-16T19:57:16.031Z,11.37
2018-04-16T19:59:48.495Z,12.53
2018-04-16T20:02:27.174Z,12.90
2018-04-16T20:04:59.724Z,10.67
2018-04-16T20:07:32.414Z,12.07
2018-04-16T20:10:05.067Z,11.57
2018-04-16T20:12:37.641Z,10.97
2018-04-16T20:15:10.439Z,10.43
2018-04-16T20:17:43.190Z,13.70
2018-04-16T20:20:15.674Z,9.17
2018-04-16T20:22:48.539Z,11.23
2018-04-16T20:25:21.158Z,11.03
2018-04-16T20:27:53.948Z,11.30
2018-04-16T20:30:26.370Z,11.97
2018-04-16T20:32:59.099Z,12.00
2018-04-16T20:35:31.730Z,12.40
2018-04-16T20:38:04.437Z,12.60
2018-04-16T20:40:37.009Z,15.40
2018-04-16T20:43:10.569Z,10.60
2018-04-16T20:45:42.973Z,11.63
2018-04-16T20:48:15.382Z,13.20
2018-04-16T20:50:48.110Z,10.50
2018-04-16T20:53:20.835Z,13.03
2018-04-16T20:55:53.361Z,10.70
2018-04-16T20:58:25.946Z,13.97
2018-04-16T21:00:58.543Z,13.73
2018-04-16T21:03:31.107Z,10.13
2018-04-16T21:06:03.654Z,12.63
2018-04-16T21:08:36.204Z,10.77
2018-04-16T21:11:09.029Z,12.40
2018-04-16T21:13:41.607Z,10.40
2018-04-16T21:16:14.160Z,10.30
2018-04-16T21:18:47.411Z,12.80
2018-04-16T21:21:20.663Z,12.30
2018-04-16T21:23:53.220Z,14.93
2018-04-16T21:26:25.836Z,14.77
2018-04-16T21:28:59.169Z,11.57
2018-04-16T21:31:33.020Z,11.83
2018-04-16T21:34:05.608Z,12.87
2018-04-16T21:36:38.219Z,13.67
2018-04-16T21:39:10.756Z,12.10
2018-04-16T21:41:43.070Z,14.90
2018-04-16T21:44:15.660Z,14.30
2018-04-16T21:46:48.996Z,12.50
2018-04-16T21:49:21.603Z,12.80
2018-04-16T21:51:54.367Z,12.67
2018-04-16T21:54:26.887Z,14.03
2018-04-16T21:56:59.388Z,13.23
2018-04-16T21:59:31.769Z,13.10
2018-04-16T22:02:04.239Z,12.93
2018-04-16T22:04:36.975Z,13.20
2018-04-16T22:07:09.541Z,10.63
2018-04-16T22:09:42.643Z,12.10
2018-04-16T22:12:16.104Z,12.10
2018-04-16T22:14:48.665Z,11.07
2018-04-16T22:17:22.743Z,16.83
2018-04-16T22:19:55.240Z,11.37
2018-04-16T22:22:27.803Z,12.53
2018-04-16T22:25:00.334Z,12.97
2018-04-16T22:27:32.771Z,10.90
2018-04-16T22:30:05.952Z,13.50
2018-04-16T22:32:39.265Z,10.70
2018-04-16T22:35:12.493Z,13.50
2018-04-16T22:37:44.908Z,12.10
2018-04-16T22:40:18.130Z,12.13
2018-04-16T22:42:50.611Z,14.70
2018-04-16T22:45:23.988Z,13.70
2018-04-16T22:47:56.584Z,10.67
2018-04-16T22:50:29.134Z,15.33
2018-04-16T22:53:02.545Z,12.77
2018-04-16T22:55:35.144Z,10.77
2018-04-16T22:58:07.786Z,12.20
2018-04-16T23:00:40.242Z,14.90
2018-04-16T23:03:12.681Z,11.87
2018-04-16T23:05:45.319Z,13.47
2018-04-16T23:08:17.712Z,13.47
2018-04-16T23:10:50.224Z,17.23
2018-04-16T23:13:22.699Z,15.37
2018-04-16T23:15:55.105Z,13.93
2018-04-16T23:18:27.608Z,11.93
2018-04-16T23:21:00.089Z,14.17
2018-04-16T23:23:34.117Z,12.00
2018-04-16T23:26:06.612Z,13.50
2018-04-16T23:28:39.223Z,15.73
2018-04-16T23:31:11.623Z,16.93
2018-04-16T23:33:44.276Z,13.27
2018-04-16T23:36:16.794Z,21.67
2018-04-16T23:38:49.565Z,14.93
2018-04-16T23:41:22.243Z,14.17
2018-04-16T23:43:54.654Z,15.83
2018-04-16T23:46:27.951Z,12.73
2018-04-16T23:49:00.425Z,12.67
2018-04-16T23:51:33.054Z,12.50
2018-04-16T23:54:06.447Z,15.00
2018-04-16T23:56:39.095Z,16.70
2018-04-16T23:59:12.281Z,12.87
